sensor_id;sensor_type;location;lat;lon;timestamp;P1;durP1;ratioP1;P2;durP2;ratioP2
21987;SDS011;11158;53.404;-1.510;2022-11-15T00:00:52;3.40;;;2.13;;
21987;SDS011;11158;53.404;-1.510;2022-11-15T00:03:19;3.65;;;2.08;;
21987;SDS011;11158;53.404;-1.510;2022-11-15T00:05:46;3.13;;;2.00;;
21987;SDS011;11158;53.404;-1.510;2022-11-15T00:08:13;4.85;;;1.95;;
21987;SDS011;11158;53.404;-1.510;2022-11-15T00:10:39;4.07;;;2.10;;
21987;SDS011;11158;53.404;-1.510;2022-11-15T00:13:08;5.13;;;2.00;;
21987;SDS011;11158;53.404;-1.510;2022-11-15T00:15:36;5.73;;;1.97;;
21987;SDS011;11158;53.404;-1.510;2022-11-15T00:18:03;5.00;;;1.90;;
21987;SDS011;11158;53.404;-1.510;2022-11-15T00:20:30;3.80;;;1.60;;
21987;SDS011;11158;53.404;-1.510;2022-11-15T00:22:58;6.22;;;2.13;;
21987;SDS011;11158;53.404;-1.510;2022-11-15T00:25:24;4.35;;;1.90;;
21987;SDS011;11158;53.404;-1.510;2022-11-15T00:27:54;7.35;;;2.38;;
21987;SDS011;11158;53.404;-1.510;2022-11-15T00:30:20;6.53;;;1.75;;
21987;SDS011;11158;53.404;-1.510;2022-11-15T00:32:46;6.90;;;1.80;;
21987;SDS011;11158;53.404;-1.510;2022-11-15T00:35:12;5.43;;;1.52;;
21987;SDS011;11158;53.404;-1.510;2022-11-15T00:37:37;5.07;;;1.55;;
21987;SDS011;11158;53.404;-1.510;2022-11-15T00:40:03;3.90;;;1.77;;
21987;SDS011;11158;53.404;-1.510;2022-11-15T00:42:31;8.20;;;2.17;;
21987;SDS011;11158;53.404;-1.510;2022-11-15T00:44:56;5.75;;;1.55;;
21987;SDS011;11158;53.404;-1.510;2022-11-15T00:47:22;9.23;;;1.88;;
21987;SDS011;11158;53.404;-1.510;2022-11-15T00:49:48;3.42;;;1.23;;
21987;SDS011;11158;53.404;-1.510;2022-11-15T00:52:14;5.65;;;1.80;;
21987;SDS011;11158;53.404;-1.510;2022-11-15T00:54:39;7.38;;;1.60;;
21987;SDS011;11158;53.404;-1.510;2022-11-15T00:57:05;5.18;;;1.95;;
21987;SDS011;11158;53.404;-1.510;2022-11-15T00:59:31;5.55;;;2.17;;
21987;SDS011;11158;53.404;-1.510;2022-11-15T01:01:56;8.05;;;1.90;;
21987;SDS011;11158;53.404;-1.510;2022-11-15T01:04:22;11.07;;;2.28;;
21987;SDS011;11158;53.404;-1.510;2022-11-15T01:06:47;5.60;;;1.77;;
21987;SDS011;11158;53.404;-1.510;2022-11-15T01:09:13;2.55;;;1.40;;
21987;SDS011;11158;53.404;-1.510;2022-11-15T01:11:39;8.13;;;1.48;;
21987;SDS011;11158;53.404;-1.510;2022-11-15T01:14:04;4.35;;;2.00;;
21987;SDS011;11158;53.404;-1.510;2022-11-15T01:16:30;9.52;;;2.25;;
21987;SDS011;11158;53.404;-1.510;2022-11-15T01:18:58;8.32;;;1.85;;
21987;SDS011;11158;53.404;-1.510;2022-11-15T01:21:25;5.15;;;1.67;;
21987;SDS011;11158;53.404;-1.510;2022-11-15T01:23:55;6.43;;;1.58;;
21987;SDS011;11158;53.404;-1.510;2022-11-15T01:26:22;7.60;;;1.70;;
21987;SDS011;11158;53.404;-1.510;2022-11-15T01:28:49;4.10;;;2.08;;
21987;SDS011;11158;53.404;-1.510;2022-11-15T01:31:15;7.93;;;2.40;;
21987;SDS011;11158;53.404;-1.510;2022-11-15T01:33:44;6.72;;;2.22;;
21987;SDS011;11158;53.404;-1.510;2022-11-15T01:36:11;7.35;;;3.03;;
21987;SDS011;11158;53.404;-1.510;2022-11-15T01:38:39;8.00;;;2.65;;
21987;SDS011;11158;53.404;-1.510;2022-11-15T01:41:04;4.95;;;2.30;;
21987;SDS011;11158;53.404;-1.510;2022-11-15T01:43:32;9.02;;;2.80;;
21987;SDS011;11158;53.404;-1.510;2022-11-15T01:48:44;8.38;;;2.47;;
21987;SDS011;11158;53.404;-1.510;2022-11-15T01:51:11;6.22;;;2.55;;
21987;SDS011;11158;53.404;-1.510;2022-11-15T01:53:39;6.60;;;2.05;;
21987;SDS011;11158;53.404;-1.510;2022-11-15T01:56:11;8.20;;;1.80;;
21987;SDS011;11158;53.404;-1.510;2022-11-15T01:58:42;5.25;;;1.90;;
21987;SDS011;11158;53.404;-1.510;2022-11-15T02:01:11;4.63;;;1.95;;
21987;SDS011;11158;53.404;-1.510;2022-11-15T02:03:45;4.88;;;1.92;;
21987;SDS011;11158;53.404;-1.510;2022-11-15T02:06:16;5.82;;;1.98;;
21987;SDS011;11158;53.404;-1.510;2022-11-15T02:08:42;8.98;;;2.40;;
21987;SDS011;11158;53.404;-1.510;2022-11-15T02:11:09;11.85;;;2.30;;
21987;SDS011;11158;53.404;-1.510;2022-11-15T02:13:35;6.03;;;2.15;;
21987;SDS011;11158;53.404;-1.510;2022-11-15T02:19:18;9.70;;;2.10;;
21987;SDS011;11158;53.404;-1.510;2022-11-15T02:22:14;6.70;;;1.50;;
21987;SDS011;11158;53.404;-1.510;2022-11-15T02:36:11;8.93;;;1.70;;
21987;SDS011;11158;53.404;-1.510;2022-11-15T02:41:13;2.50;;;1.27;;
21987;SDS011;11158;53.404;-1.510;2022-11-15T02:43:53;10.52;;;2.00;;
21987;SDS011;11158;53.404;-1.510;2022-11-15T02:46:37;6.72;;;2.10;;
21987;SDS011;11158;53.404;-1.510;2022-11-15T02:49:26;6.72;;;1.80;;
21987;SDS011;11158;53.404;-1.510;2022-11-15T02:51:54;4.80;;;1.75;;
21987;SDS011;11158;53.404;-1.510;2022-11-15T02:54:22;7.78;;;2.13;;
21987;SDS011;11158;53.404;-1.510;2022-11-15T02:56:51;7.28;;;2.20;;
21987;SDS011;11158;53.404;-1.510;2022-11-15T03:07:48;5.32;;;1.77;;
21987;SDS011;11158;53.404;-1.510;2022-11-15T03:10:30;4.30;;;1.75;;
21987;SDS011;11158;53.404;-1.510;2022-11-15T03:13:44;3.33;;;1.70;;
21987;SDS011;11158;53.404;-1.510;2022-11-15T03:18:57;5.85;;;1.80;;
21987;SDS011;11158;53.404;-1.510;2022-11-15T03:21:28;7.32;;;1.80;;
21987;SDS011;11158;53.404;-1.510;2022-11-15T03:23:57;7.57;;;2.28;;
21987;SDS011;11158;53.404;-1.510;2022-11-15T03:26:26;6.82;;;2.42;;
21987;SDS011;11158;53.404;-1.510;2022-11-15T03:28:57;8.35;;;2.40;;
21987;SDS011;11158;53.404;-1.510;2022-11-15T03:31:56;7.85;;;2.17;;
21987;SDS011;11158;53.404;-1.510;2022-11-15T03:34:28;7.00;;;1.98;;
21987;SDS011;11158;53.404;-1.510;2022-11-15T03:36:58;8.05;;;1.95;;
21987;SDS011;11158;53.404;-1.510;2022-11-15T03:39:24;7.80;;;2.55;;
21987;SDS011;11158;53.404;-1.510;2022-11-15T03:47:36;8.18;;;2.50;;
21987;SDS011;11158;53.404;-1.510;2022-11-15T03:50:08;4.63;;;2.35;;
21987;SDS011;11158;53.404;-1.510;2022-11-15T03:52:38;6.10;;;2.13;;
21987;SDS011;11158;53.404;-1.510;2022-11-15T03:55:07;17.05;;;2.72;;
21987;SDS011;11158;53.404;-1.510;2022-11-15T03:57:36;9.27;;;2.10;;
21987;SDS011;11158;53.404;-1.510;2022-11-15T04:00:05;14.15;;;2.85;;
21987;SDS011;11158;53.404;-1.510;2022-11-15T04:02:31;18.95;;;2.72;;
21987;SDS011;11158;53.404;-1.510;2022-11-15T04:04:58;7.57;;;2.20;;
21987;SDS011;11158;53.404;-1.510;2022-11-15T04:07:23;6.65;;;1.55;;
21987;SDS011;11158;53.404;-1.510;2022-11-15T04:09:49;7.88;;;1.90;;
21987;SDS011;11158;53.404;-1.510;2022-11-15T04:12:31;7.68;;;1.98;;
21987;SDS011;11158;53.404;-1.510;2022-11-15T04:15:03;9.87;;;2.50;;
21987;SDS011;11158;53.404;-1.510;2022-11-15T04:17:43;6.97;;;2.00;;
21987;SDS011;11158;53.404;-1.510;2022-11-15T04:20:11;11.27;;;2.15;;
21987;SDS011;11158;53.404;-1.510;2022-11-15T04:22:59;11.80;;;2.00;;
21987;SDS011;11158;53.404;-1.510;2022-11-15T04:25:45;5.05;;;1.55;;
21987;SDS011;11158;53.404;-1.510;2022-11-15T04:28:14;12.27;;;2.20;;
21987;SDS011;11158;53.404;-1.510;2022-11-15T04:30:40;8.00;;;1.98;;
21987;SDS011;11158;53.404;-1.510;2022-11-15T04:33:06;12.57;;;2.15;;
21987;SDS011;11158;53.404;-1.510;2022-11-15T04:35:32;5.45;;;1.50;;
21987;SDS011;11158;53.404;-1.510;2022-11-15T04:37:58;6.20;;;1.80;;
21987;SDS011;11158;53.404;-1.510;2022-11-15T04:40:24;9.23;;;1.92;;
21987;SDS011;11158;53.404;-1.510;2022-11-15T04:42:50;8.32;;;2.00;;
21987;SDS011;11158;53.404;-1.510;2022-11-15T04:45:16;6.03;;;2.58;;
21987;SDS011;11158;53.404;-1.510;2022-11-15T04:47:45;9.40;;;1.73;;
21987;SDS011;11158;53.404;-1.510;2022-11-15T04:50:11;7.38;;;1.80;;
21987;SDS011;11158;53.404;-1.510;2022-11-15T04:52:42;9.68;;;1.75;;
21987;SDS011;11158;53.404;-1.510;2022-11-15T04:55:09;6.70;;;1.75;;
21987;SDS011;11158;53.404;-1.510;2022-11-15T04:57:36;5.28;;;1.60;;
21987;SDS011;11158;53.404;-1.510;2022-11-15T05:00:04;10.23;;;1.50;;
21987;SDS011;11158;53.404;-1.510;2022-11-15T05:02:31;9.15;;;1.60;;
21987;SDS011;11158;53.404;-1.510;2022-11-15T05:05:15;7.13;;;1.20;;
21987;SDS011;11158;53.404;-1.510;2022-11-15T05:07:41;7.70;;;1.63;;
21987;SDS011;11158;53.404;-1.510;2022-11-15T05:10:06;8.55;;;2.25;;
21987;SDS011;11158;53.404;-1.510;2022-11-15T05:12:33;6.13;;;1.65;;
21987;SDS011;11158;53.404;-1.510;2022-11-15T05:14:58;10.35;;;1.63;;
21987;SDS011;11158;53.404;-1.510;2022-11-15T05:17:24;9.35;;;2.08;;
21987;SDS011;11158;53.404;-1.510;2022-11-15T05:19:50;10.85;;;2.65;;
21987;SDS011;11158;53.404;-1.510;2022-11-15T05:22:17;9.52;;;2.05;;
21987;SDS011;11158;53.404;-1.510;2022-11-15T05:24:44;9.63;;;1.80;;
21987;SDS011;11158;53.404;-1.510;2022-11-15T05:27:09;5.20;;;1.63;;
21987;SDS011;11158;53.404;-1.510;2022-11-15T05:29:35;7.95;;;1.83;;
21987;SDS011;11158;53.404;-1.510;2022-11-15T05:32:01;11.40;;;1.63;;
21987;SDS011;11158;53.404;-1.510;2022-11-15T05:34:30;7.13;;;1.90;;
21987;SDS011;11158;53.404;-1.510;2022-11-15T05:36:57;8.70;;;2.50;;
21987;SDS011;11158;53.404;-1.510;2022-11-15T05:39:23;6.30;;;1.75;;
21987;SDS011;11158;53.404;-1.510;2022-11-15T05:41:52;6.07;;;1.80;;
21987;SDS011;11158;53.404;-1.510;2022-11-15T05:44:22;5.90;;;1.38;;
21987;SDS011;11158;53.404;-1.510;2022-11-15T05:46:49;10.30;;;1.90;;
21987;SDS011;11158;53.404;-1.510;2022-11-15T05:49:19;6.75;;;1.92;;
21987;SDS011;11158;53.404;-1.510;2022-11-15T05:51:47;6.15;;;1.88;;
21987;SDS011;11158;53.404;-1.510;2022-11-15T05:54:15;7.65;;;2.30;;
21987;SDS011;11158;53.404;-1.510;2022-11-15T05:56:41;8.82;;;2.17;;
21987;SDS011;11158;53.404;-1.510;2022-11-15T05:59:08;6.40;;;1.75;;
21987;SDS011;11158;53.404;-1.510;2022-11-15T06:01:35;8.05;;;2.30;;
21987;SDS011;11158;53.404;-1.510;2022-11-15T06:04:03;11.60;;;2.33;;
21987;SDS011;11158;53.404;-1.510;2022-11-15T06:06:30;7.35;;;2.10;;
21987;SDS011;11158;53.404;-1.510;2022-11-15T06:08:55;9.25;;;2.47;;
21987;SDS011;11158;53.404;-1.510;2022-11-15T06:11:21;9.80;;;2.95;;
21987;SDS011;11158;53.404;-1.510;2022-11-15T06:13:47;8.85;;;2.75;;
21987;SDS011;11158;53.404;-1.510;2022-11-15T06:16:13;8.50;;;2.60;;
21987;SDS011;11158;53.404;-1.510;2022-11-15T06:18:39;9.25;;;2.50;;
21987;SDS011;11158;53.404;-1.510;2022-11-15T06:21:05;7.95;;;2.90;;
21987;SDS011;11158;53.404;-1.510;2022-11-15T06:23:31;7.97;;;2.83;;
21987;SDS011;11158;53.404;-1.510;2022-11-15T06:26:00;8.90;;;2.83;;
21987;SDS011;11158;53.404;-1.510;2022-11-15T06:28:28;6.55;;;2.20;;
21987;SDS011;11158;53.404;-1.510;2022-11-15T06:30:54;6.85;;;2.30;;
21987;SDS011;11158;53.404;-1.510;2022-11-15T06:33:20;8.40;;;2.90;;
21987;SDS011;11158;53.404;-1.510;2022-11-15T06:35:46;6.47;;;2.75;;
21987;SDS011;11158;53.404;-1.510;2022-11-15T06:38:12;8.48;;;2.55;;
21987;SDS011;11158;53.404;-1.510;2022-11-15T06:40:38;10.32;;;2.75;;
21987;SDS011;11158;53.404;-1.510;2022-11-15T06:43:05;4.88;;;2.17;;
21987;SDS011;11158;53.404;-1.510;2022-11-15T06:45:31;6.78;;;3.13;;
21987;SDS011;11158;53.404;-1.510;2022-11-15T06:47:57;7.88;;;2.78;;
21987;SDS011;11158;53.404;-1.510;2022-11-15T06:50:24;3.65;;;2.60;;
21987;SDS011;11158;53.404;-1.510;2022-11-15T06:52:50;7.80;;;2.85;;
21987;SDS011;11158;53.404;-1.510;2022-11-15T06:55:15;9.38;;;3.22;;
21987;SDS011;11158;53.404;-1.510;2022-11-15T06:57:48;5.00;;;3.03;;
21987;SDS011;11158;53.404;-1.510;2022-11-15T07:00:18;6.43;;;3.17;;
21987;SDS011;11158;53.404;-1.510;2022-11-15T07:02:45;5.75;;;2.80;;
21987;SDS011;11158;53.404;-1.510;2022-11-15T07:05:11;6.35;;;2.50;;
21987;SDS011;11158;53.404;-1.510;2022-11-15T07:07:38;6.30;;;3.10;;
21987;SDS011;11158;53.404;-1.510;2022-11-15T07:10:04;6.43;;;3.35;;
21987;SDS011;11158;53.404;-1.510;2022-11-15T07:12:31;7.00;;;3.50;;
21987;SDS011;11158;53.404;-1.510;2022-11-15T07:14:56;9.32;;;3.30;;
21987;SDS011;11158;53.404;-1.510;2022-11-15T07:17:22;6.72;;;3.40;;
21987;SDS011;11158;53.404;-1.510;2022-11-15T07:19:48;5.88;;;3.35;;
21987;SDS011;11158;53.404;-1.510;2022-11-15T07:22:13;6.75;;;2.95;;
21987;SDS011;11158;53.404;-1.510;2022-11-15T07:24:39;8.05;;;3.13;;
21987;SDS011;11158;53.404;-1.510;2022-11-15T07:27:04;5.63;;;3.08;;
21987;SDS011;11158;53.404;-1.510;2022-11-15T07:29:30;6.25;;;3.33;;
21987;SDS011;11158;53.404;-1.510;2022-11-15T07:31:56;7.15;;;2.80;;
21987;SDS011;11158;53.404;-1.510;2022-11-15T07:34:22;3.85;;;2.50;;
21987;SDS011;11158;53.404;-1.510;2022-11-15T07:36:48;5.47;;;3.17;;
21987;SDS011;11158;53.404;-1.510;2022-11-15T07:39:14;6.22;;;2.83;;
21987;SDS011;11158;53.404;-1.510;2022-11-15T07:41:40;6.10;;;3.13;;
21987;SDS011;11158;53.404;-1.510;2022-11-15T07:44:06;5.40;;;3.05;;
21987;SDS011;11158;53.404;-1.510;2022-11-15T07:46:31;4.07;;;2.70;;
21987;SDS011;11158;53.404;-1.510;2022-11-15T07:48:57;6.93;;;3.20;;
21987;SDS011;11158;53.404;-1.510;2022-11-15T07:51:23;7.53;;;2.90;;
21987;SDS011;11158;53.404;-1.510;2022-11-15T07:53:49;4.03;;;3.05;;
21987;SDS011;11158;53.404;-1.510;2022-11-15T07:56:15;2.92;;;2.63;;
21987;SDS011;11158;53.404;-1.510;2022-11-15T07:58:41;4.75;;;3.03;;
21987;SDS011;11158;53.404;-1.510;2022-11-15T08:01:07;3.40;;;2.63;;
21987;SDS011;11158;53.404;-1.510;2022-11-15T08:03:35;4.90;;;3.00;;
21987;SDS011;11158;53.404;-1.510;2022-11-15T08:06:01;5.30;;;3.03;;
21987;SDS011;11158;53.404;-1.510;2022-11-15T08:08:27;7.25;;;3.55;;
21987;SDS011;11158;53.404;-1.510;2022-11-15T08:10:53;8.23;;;3.00;;
21987;SDS011;11158;53.404;-1.510;2022-11-15T08:13:19;6.20;;;2.72;;
21987;SDS011;11158;53.404;-1.510;2022-11-15T08:16:01;4.70;;;2.95;;
21987;SDS011;11158;53.404;-1.510;2022-11-15T08:18:28;5.85;;;3.25;;
21987;SDS011;11158;53.404;-1.510;2022-11-15T08:20:58;5.53;;;3.10;;
21987;SDS011;11158;53.404;-1.510;2022-11-15T08:23:26;4.03;;;3.13;;
21987;SDS011;11158;53.404;-1.510;2022-11-15T08:25:51;7.35;;;3.53;;
21987;SDS011;11158;53.404;-1.510;2022-11-15T08:28:17;3.35;;;3.03;;
21987;SDS011;11158;53.404;-1.510;2022-11-15T08:30:43;6.65;;;3.25;;
21987;SDS011;11158;53.404;-1.510;2022-11-15T08:33:11;4.82;;;2.80;;
21987;SDS011;11158;53.404;-1.510;2022-11-15T08:35:39;4.80;;;3.00;;
21987;SDS011;11158;53.404;-1.510;2022-11-15T08:38:05;4.47;;;3.20;;
21987;SDS011;11158;53.404;-1.510;2022-11-15T08:40:31;5.00;;;2.83;;
21987;SDS011;11158;53.404;-1.510;2022-11-15T08:42:57;4.35;;;2.90;;
21987;SDS011;11158;53.404;-1.510;2022-11-15T08:45:23;5.53;;;2.75;;
21987;SDS011;11158;53.404;-1.510;2022-11-15T08:47:49;4.47;;;3.10;;
21987;SDS011;11158;53.404;-1.510;2022-11-15T08:50:15;6.65;;;3.17;;
21987;SDS011;11158;53.404;-1.510;2022-11-15T08:52:41;8.00;;;2.65;;
21987;SDS011;11158;53.404;-1.510;2022-11-15T08:55:07;7.50;;;2.85;;
21987;SDS011;11158;53.404;-1.510;2022-11-15T08:57:34;3.15;;;2.40;;
21987;SDS011;11158;53.404;-1.510;2022-11-15T08:59:59;6.53;;;3.20;;
21987;SDS011;11158;53.404;-1.510;2022-11-15T09:02:26;6.28;;;3.20;;
21987;SDS011;11158;53.404;-1.510;2022-11-15T09:04:51;4.25;;;3.20;;
21987;SDS011;11158;53.404;-1.510;2022-11-15T09:07:17;4.32;;;2.92;;
21987;SDS011;11158;53.404;-1.510;2022-11-15T09:09:43;6.45;;;3.00;;
21987;SDS011;11158;53.404;-1.510;2022-11-15T09:12:09;4.40;;;2.75;;
21987;SDS011;11158;53.404;-1.510;2022-11-15T09:14:34;5.55;;;3.22;;
21987;SDS011;11158;53.404;-1.510;2022-11-15T09:17:01;4.57;;;2.75;;
21987;SDS011;11158;53.404;-1.510;2022-11-15T09:19:27;5.25;;;2.50;;
21987;SDS011;11158;53.404;-1.510;2022-11-15T09:21:53;5.05;;;2.40;;
21987;SDS011;11158;53.404;-1.510;2022-11-15T09:24:19;3.10;;;2.40;;
21987;SDS011;11158;53.404;-1.510;2022-11-15T09:26:45;6.15;;;2.60;;
21987;SDS011;11158;53.404;-1.510;2022-11-15T09:29:11;4.32;;;1.92;;
21987;SDS011;11158;53.404;-1.510;2022-11-15T09:31:36;3.95;;;2.40;;
21987;SDS011;11158;53.404;-1.510;2022-11-15T09:34:02;2.30;;;1.95;;
21987;SDS011;11158;53.404;-1.510;2022-11-15T09:36:28;7.03;;;2.30;;
21987;SDS011;11158;53.404;-1.510;2022-11-15T09:38:54;5.22;;;2.42;;
21987;SDS011;11158;53.404;-1.510;2022-11-15T09:41:28;3.45;;;2.33;;
21987;SDS011;11158;53.404;-1.510;2022-11-15T09:44:34;4.20;;;2.10;;
21987;SDS011;11158;53.404;-1.510;2022-11-15T09:47:28;5.28;;;2.15;;
21987;SDS011;11158;53.404;-1.510;2022-11-15T09:50:26;4.25;;;1.98;;
21987;SDS011;11158;53.404;-1.510;2022-11-15T09:52:58;6.13;;;2.33;;
21987;SDS011;11158;53.404;-1.510;2022-11-15T09:55:28;4.20;;;2.20;;
21987;SDS011;11158;53.404;-1.510;2022-11-15T09:58:18;5.47;;;2.40;;
21987;SDS011;11158;53.404;-1.510;2022-11-15T10:00:51;2.45;;;2.10;;
21987;SDS011;11158;53.404;-1.510;2022-11-15T10:03:26;3.55;;;2.33;;
21987;SDS011;11158;53.404;-1.510;2022-11-15T10:05:57;3.40;;;2.13;;
21987;SDS011;11158;53.404;-1.510;2022-11-15T10:11:30;3.25;;;2.25;;
21987;SDS011;11158;53.404;-1.510;2022-11-15T10:14:02;4.05;;;2.30;;
21987;SDS011;11158;53.404;-1.510;2022-11-15T10:16:53;4.20;;;2.38;;
21987;SDS011;11158;53.404;-1.510;2022-11-15T10:19:26;3.15;;;2.20;;
21987;SDS011;11158;53.404;-1.510;2022-11-15T10:22:45;3.75;;;2.20;;
21987;SDS011;11158;53.404;-1.510;2022-11-15T10:28:09;4.25;;;2.20;;
21987;SDS011;11158;53.404;-1.510;2022-11-15T10:30:41;3.45;;;2.10;;
21987;SDS011;11158;53.404;-1.510;2022-11-15T10:36:22;5.68;;;2.10;;
21987;SDS011;11158;53.404;-1.510;2022-11-15T10:41:36;6.80;;;1.90;;
21987;SDS011;11158;53.404;-1.510;2022-11-15T10:46:44;1.97;;;1.77;;
21987;SDS011;11158;53.404;-1.510;2022-11-15T10:49:16;3.40;;;2.00;;
21987;SDS011;11158;53.404;-1.510;2022-11-15T10:54:25;1.88;;;1.63;;
21987;SDS011;11158;53.404;-1.510;2022-11-15T10:57:18;4.15;;;1.98;;
21987;SDS011;11158;53.404;-1.510;2022-11-15T10:59:49;2.78;;;1.50;;
21987;SDS011;11158;53.404;-1.510;2022-11-15T11:02:35;5.07;;;1.75;;
21987;SDS011;11158;53.404;-1.510;2022-11-15T11:05:30;2.38;;;1.38;;
21987;SDS011;11158;53.404;-1.510;2022-11-15T11:08:23;4.65;;;1.65;;
21987;SDS011;11158;53.404;-1.510;2022-11-15T11:10:53;5.38;;;2.00;;
21987;SDS011;11158;53.404;-1.510;2022-11-15T11:13:27;1.95;;;1.60;;
21987;SDS011;11158;53.404;-1.510;2022-11-15T11:37:49;1.60;;;0.80;;
21987;SDS011;11158;53.404;-1.510;2022-11-15T11:40:27;2.30;;;1.10;;
21987;SDS011;11158;53.404;-1.510;2022-11-15T11:49:02;1.30;;;1.08;;
21987;SDS011;11158;53.404;-1.510;2022-11-15T11:51:03;3.55;;;1.10;;
21987;SDS011;11158;53.404;-1.510;2022-11-15T11:53:39;3.35;;;1.20;;
21987;SDS011;11158;53.404;-1.510;2022-11-15T11:56:21;1.63;;;1.08;;
21987;SDS011;11158;53.404;-1.510;2022-11-15T11:59:19;1.20;;;1.10;;
21987;SDS011;11158;53.404;-1.510;2022-11-15T12:01:51;1.23;;;1.00;;
21987;SDS011;11158;53.404;-1.510;2022-11-15T12:04:21;3.00;;;1.08;;
21987;SDS011;11158;53.404;-1.510;2022-11-15T12:09:34;1.50;;;1.17;;
21987;SDS011;11158;53.404;-1.510;2022-11-15T12:17:11;2.67;;;1.70;;
21987;SDS011;11158;53.404;-1.510;2022-11-15T12:19:37;2.95;;;1.80;;
21987;SDS011;11158;53.404;-1.510;2022-11-15T12:25:07;4.35;;;1.60;;
21987;SDS011;11158;53.404;-1.510;2022-11-15T12:27:41;1.27;;;1.17;;
21987;SDS011;11158;53.404;-1.510;2022-11-15T12:30:16;1.40;;;1.30;;
21987;SDS011;11158;53.404;-1.510;2022-11-15T12:32:59;2.65;;;1.20;;
21987;SDS011;11158;53.404;-1.510;2022-11-15T12:35:33;1.77;;;1.50;;
21987;SDS011;11158;53.404;-1.510;2022-11-15T12:38:02;2.55;;;1.90;;
21987;SDS011;11158;53.404;-1.510;2022-11-15T12:40:29;4.40;;;1.80;;
21987;SDS011;11158;53.404;-1.510;2022-11-15T12:43:33;2.47;;;1.48;;
21987;SDS011;11158;53.404;-1.510;2022-11-15T12:46:09;2.22;;;1.60;;
21987;SDS011;11158;53.404;-1.510;2022-11-15T12:48:47;3.35;;;1.90;;
21987;SDS011;11158;53.404;-1.510;2022-11-15T12:51:13;3.33;;;1.38;;
21987;SDS011;11158;53.404;-1.510;2022-11-15T12:53:39;1.52;;;1.30;;
21987;SDS011;11158;53.404;-1.510;2022-11-15T13:07:00;1.20;;;1.10;;
21987;SDS011;11158;53.404;-1.510;2022-11-15T13:12:02;1.70;;;1.42;;
21987;SDS011;11158;53.404;-1.510;2022-11-15T13:14:41;2.60;;;1.95;;
21987;SDS011;11158;53.404;-1.510;2022-11-15T13:19:42;3.03;;;2.35;;
21987;SDS011;11158;53.404;-1.510;2022-11-15T13:22:09;3.97;;;1.95;;
21987;SDS011;11158;53.404;-1.510;2022-11-15T13:24:54;2.38;;;1.90;;
21987;SDS011;11158;53.404;-1.510;2022-11-15T13:27:20;2.80;;;1.40;;
21987;SDS011;11158;53.404;-1.510;2022-11-15T13:29:46;2.90;;;2.60;;
21987;SDS011;11158;53.404;-1.510;2022-11-15T13:32:13;2.30;;;2.10;;
21987;SDS011;11158;53.404;-1.510;2022-11-15T13:34:44;3.28;;;2.45;;
21987;SDS011;11158;53.404;-1.510;2022-11-15T13:39:48;4.53;;;2.50;;
21987;SDS011;11158;53.404;-1.510;2022-11-15T13:42:15;3.58;;;1.73;;
21987;SDS011;11158;53.404;-1.510;2022-11-15T13:45:02;2.10;;;1.90;;
21987;SDS011;11158;53.404;-1.510;2022-11-15T13:47:30;2.60;;;1.70;;
21987;SDS011;11158;53.404;-1.510;2022-11-15T13:49:58;1.67;;;1.48;;
21987;SDS011;11158;53.404;-1.510;2022-11-15T13:52:27;1.95;;;1.58;;
21987;SDS011;11158;53.404;-1.510;2022-11-15T13:54:59;1.65;;;1.55;;
21987;SDS011;11158;53.404;-1.510;2022-11-15T13:57:40;4.90;;;2.97;;
21987;SDS011;11158;53.404;-1.510;2022-11-15T14:00:24;2.53;;;1.00;;
21987;SDS011;11158;53.404;-1.510;2022-11-15T14:02:53;1.90;;;1.02;;
21987;SDS011;11158;53.404;-1.510;2022-11-15T14:05:24;1.13;;;0.85;;
21987;SDS011;11158;53.404;-1.510;2022-11-15T14:07:57;1.92;;;1.05;;
21987;SDS011;11158;53.404;-1.510;2022-11-15T14:10:32;1.65;;;1.20;;
21987;SDS011;11158;53.404;-1.510;2022-11-15T14:13:03;2.13;;;1.23;;
21987;SDS011;11158;53.404;-1.510;2022-11-15T14:15:37;2.88;;;1.08;;
21987;SDS011;11158;53.404;-1.510;2022-11-15T14:18:04;2.30;;;1.13;;
21987;SDS011;11158;53.404;-1.510;2022-11-15T14:20:35;1.55;;;1.23;;
21987;SDS011;11158;53.404;-1.510;2022-11-15T14:25:30;1.65;;;1.20;;
21987;SDS011;11158;53.404;-1.510;2022-11-15T14:28:08;1.52;;;1.30;;
21987;SDS011;11158;53.404;-1.510;2022-11-15T14:30:38;2.08;;;1.00;;
21987;SDS011;11158;53.404;-1.510;2022-11-15T14:33:21;1.70;;;1.08;;
21987;SDS011;11158;53.404;-1.510;2022-11-15T14:35:51;1.58;;;1.20;;
21987;SDS011;11158;53.404;-1.510;2022-11-15T14:38:17;0.90;;;0.90;;
21987;SDS011;11158;53.404;-1.510;2022-11-15T14:40:44;1.52;;;0.85;;
21987;SDS011;11158;53.404;-1.510;2022-11-15T14:43:10;1.08;;;0.90;;
21987;SDS011;11158;53.404;-1.510;2022-11-15T14:45:37;1.38;;;1.13;;
21987;SDS011;11158;53.404;-1.510;2022-11-15T14:48:04;2.85;;;1.35;;
21987;SDS011;11158;53.404;-1.510;2022-11-15T14:50:30;3.40;;;2.85;;
21987;SDS011;11158;53.404;-1.510;2022-11-15T14:52:58;2.60;;;1.80;;
21987;SDS011;11158;53.404;-1.510;2022-11-15T14:55:25;5.03;;;2.83;;
21987;SDS011;11158;53.404;-1.510;2022-11-15T14:58:04;1.55;;;1.35;;
21987;SDS011;11158;53.404;-1.510;2022-11-15T15:00:35;1.20;;;0.85;;
21987;SDS011;11158;53.404;-1.510;2022-11-15T15:03:02;1.05;;;0.90;;
21987;SDS011;11158;53.404;-1.510;2022-11-15T15:05:31;2.50;;;0.85;;
21987;SDS011;11158;53.404;-1.510;2022-11-15T15:08:05;1.73;;;1.20;;
21987;SDS011;11158;53.404;-1.510;2022-11-15T15:10:44;4.82;;;1.40;;
21987;SDS011;11158;53.404;-1.510;2022-11-15T15:13:29;1.23;;;1.13;;
21987;SDS011;11158;53.404;-1.510;2022-11-15T15:15:55;1.40;;;0.80;;
21987;SDS011;11158;53.404;-1.510;2022-11-15T15:18:21;1.25;;;0.85;;
21987;SDS011;11158;53.404;-1.510;2022-11-15T15:20:54;4.03;;;0.80;;
21987;SDS011;11158;53.404;-1.510;2022-11-15T15:23:22;1.95;;;1.05;;
21987;SDS011;11158;53.404;-1.510;2022-11-15T15:25:50;2.70;;;1.15;;
21987;SDS011;11158;53.404;-1.510;2022-11-15T15:28:17;2.42;;;1.50;;
21987;SDS011;11158;53.404;-1.510;2022-11-15T15:30:43;3.85;;;1.60;;
21987;SDS011;11158;53.404;-1.510;2022-11-15T15:33:10;3.58;;;1.38;;
21987;SDS011;11158;53.404;-1.510;2022-11-15T15:35:35;3.03;;;1.83;;
21987;SDS011;11158;53.404;-1.510;2022-11-15T15:38:01;2.25;;;1.30;;
21987;SDS011;11158;53.404;-1.510;2022-11-15T15:40:29;2.22;;;0.93;;
21987;SDS011;11158;53.404;-1.510;2022-11-15T15:42:57;2.55;;;1.05;;
21987;SDS011;11158;53.404;-1.510;2022-11-15T15:45:24;2.45;;;1.23;;
21987;SDS011;11158;53.404;-1.510;2022-11-15T15:47:51;2.72;;;0.80;;
21987;SDS011;11158;53.404;-1.510;2022-11-15T15:53:00;2.47;;;0.90;;
21987;SDS011;11158;53.404;-1.510;2022-11-15T15:55:28;1.77;;;0.80;;
21987;SDS011;11158;53.404;-1.510;2022-11-15T15:57:54;2.15;;;0.80;;
21987;SDS011;11158;53.404;-1.510;2022-11-15T16:00:20;2.67;;;0.98;;
21987;SDS011;11158;53.404;-1.510;2022-11-15T16:02:48;2.55;;;0.95;;
21987;SDS011;11158;53.404;-1.510;2022-11-15T16:05:15;2.25;;;0.80;;
21987;SDS011;11158;53.404;-1.510;2022-11-15T16:07:40;2.33;;;0.80;;
21987;SDS011;11158;53.404;-1.510;2022-11-15T16:10:28;4.70;;;1.38;;
21987;SDS011;11158;53.404;-1.510;2022-11-15T16:12:56;1.50;;;0.82;;
21987;SDS011;11158;53.404;-1.510;2022-11-15T16:15:24;2.90;;;1.17;;
21987;SDS011;11158;53.404;-1.510;2022-11-15T16:17:55;1.83;;;1.10;;
21987;SDS011;11158;53.404;-1.510;2022-11-15T16:23:03;9.43;;;6.45;;
21987;SDS011;11158;53.404;-1.510;2022-11-15T16:25:37;3.63;;;1.05;;
21987;SDS011;11158;53.404;-1.510;2022-11-15T16:28:48;2.97;;;0.98;;
21987;SDS011;11158;53.404;-1.510;2022-11-15T16:31:03;2.50;;;1.13;;
21987;SDS011;11158;53.404;-1.510;2022-11-15T16:33:30;4.47;;;1.83;;
21987;SDS011;11158;53.404;-1.510;2022-11-15T16:35:57;1.90;;;1.02;;
21987;SDS011;11158;53.404;-1.510;2022-11-15T16:38:23;2.45;;;1.17;;
21987;SDS011;11158;53.404;-1.510;2022-11-15T16:40:49;3.40;;;1.20;;
21987;SDS011;11158;53.404;-1.510;2022-11-15T16:43:14;2.85;;;1.00;;
21987;SDS011;11158;53.404;-1.510;2022-11-15T16:45:40;5.57;;;1.48;;
21987;SDS011;11158;53.404;-1.510;2022-11-15T16:48:10;5.72;;;1.60;;